Time;durP1;ratioP1;P1;durP2;ratioP2;P2;SDS_P1;SDS_P2;PMS_P1;PMS_P2;Temp;Humidity;BMP_temperature;BMP_pressure;BME280_temperature;BME280_humidity;BME280_pressure;Samples;Min_cycle;Max_cycle;Signal;HPM_P1;HPM_P2
2022/09/17 00:00:51;;;;;;;1999.90;999.90;;;10.70;99.90;;;;;;5072659;28;20043;-65
2022/09/17 00:03:17;;;;;;;1999.90;999.90;;;10.70;99.90;;;;;;5072980;28;20062;-66
2022/09/17 00:05:43;;;;;;;1999.90;999.90;;;10.90;99.90;;;;;;5077204;28;20036;-66
2022/09/17 00:08:13;;;;;;;1999.90;999.90;;;11.10;99.90;;;;;;5087591;28;20725;-66
2022/09/17 00:10:41;;;;;;;1999.90;999.90;;;11.30;99.90;;;;;;5072617;28;20487;-66
2022/09/17 00:13:08;;;;;;;1999.90;999.90;;;11.30;99.90;;;;;;5091020;28;20681;-66
2022/09/17 00:15:43;;;;;;;1999.90;999.90;;;11.10;99.90;;;;;;5072582;28;20379;-66
2022/09/17 00:18:09;;;;;;;1999.90;999.90;;;11.10;99.90;;;;;;5085206;28;20096;-66
2022/09/17 00:20:43;;;;;;;1999.90;999.90;;;10.90;99.90;;;;;;5090732;28;20036;-66
2022/09/17 00:23:11;;;;;;;1999.90;999.90;;;10.80;99.90;;;;;;5090517;28;20056;-66
2022/09/17 00:25:39;;;;;;;1999.90;999.90;;;10.70;99.90;;;;;;5041218;28;20082;-66
2022/09/17 00:28:04;;;;;;;1999.90;999.90;;;10.70;99.90;;;;;;5090805;28;20498;-66
2022/09/17 00:30:30;;;;;;;1999.90;999.90;;;10.60;99.90;;;;;;5090102;28;20047;-66
2022/09/17 00:32:57;;;;;;;1999.90;999.90;;;10.50;99.90;;;;;;5061868;28;20095;-66
2022/09/17 00:35:26;;;;;;;1999.90;999.90;;;10.50;99.90;;;;;;5056977;28;20132;-66
2022/09/17 00:37:53;;;;;;;1999.90;999.90;;;10.40;99.90;;;;;;5087845;28;20074;-66
2022/09/17 00:40:19;;;;;;;1999.90;999.90;;;10.30;99.90;;;;;;5055245;28;20044;-66
2022/09/17 00:42:45;;;;;;;1999.90;999.90;;;10.30;99.90;;;;;;5076561;28;20071;-66
2022/09/17 00:45:11;;;;;;;1999.90;999.90;;;10.20;99.90;;;;;;5090457;28;20032;-66
2022/09/17 00:48:01;;;;;;;1999.90;999.90;;;10.20;99.90;;;;;;5084541;28;20483;-66
2022/09/17 00:50:38;;;;;;;1999.90;999.90;;;10.10;99.90;;;;;;5058258;28;20126;-66
2022/09/17 00:53:16;;;;;;;1999.90;999.90;;;10.00;99.90;;;;;;5071147;28;20075;-66
2022/09/17 00:55:47;;;;;;;1999.90;999.90;;;9.90;99.90;;;;;;5071497;28;20036;-66
2022/09/17 00:58:15;;;;;;;1999.90;999.90;;;9.80;99.90;;;;;;5088943;28;20040;-66
2022/09/17 01:00:41;;;;;;;1999.90;999.90;;;9.70;99.90;;;;;;5086332;28;20078;-66
2022/09/17 01:03:07;;;;;;;1999.90;999.90;;;9.60;99.90;;;;;;5089933;28;20076;-66
2022/09/17 01:05:39;;;;;;;1999.90;999.90;;;9.50;99.90;;;;;;5090162;28;20040;-66
2022/09/17 01:08:26;;;;;;;1999.90;999.90;;;9.40;99.90;;;;;;5089971;28;20040;-66
2022/09/17 01:11:01;;;;;;;1999.90;999.90;;;9.40;99.90;;;;;;5069750;28;20036;-66
2022/09/17 01:13:26;;;;;;;1999.90;999.90;;;9.30;99.90;;;;;;5071300;28;20051;-66
2022/09/17 01:16:06;;;;;;;1999.90;999.90;;;9.20;99.90;;;;;;5089896;28;20044;-66
2022/09/17 01:18:47;;;;;;;1999.90;999.90;;;9.20;99.90;;;;;;5089740;28;20068;-66
2022/09/17 01:21:54;;;;;;;1999.90;999.90;;;9.10;99.90;;;;;;5086136;28;20760;-66
2022/09/17 01:25:05;;;;;;;1999.90;999.90;;;9.10;99.90;;;;;;5029555;28;20503;-66
2022/09/17 01:28:07;;;;;;;1999.90;999.90;;;9.10;99.90;;;;;;5054158;28;20078;-66
2022/09/17 01:30:41;;;;;;;1999.90;999.90;;;9.10;99.90;;;;;;5068362;28;20394;-66
2022/09/17 01:33:16;;;;;;;1999.90;999.90;;;9.10;99.90;;;;;;5070743;28;20044;-66
2022/09/17 01:36:00;;;;;;;1999.90;999.90;;;9.00;99.90;;;;;;5056993;28;20040;-66
2022/09/17 01:38:37;;;;;;;1999.90;999.90;;;9.00;99.90;;;;;;5083971;28;20036;-66
2022/09/17 01:41:28;;;;;;;1999.90;999.90;;;9.00;99.90;;;;;;5068190;28;20093;-66
2022/09/17 01:44:05;;;;;;;1999.90;999.90;;;9.00;99.90;;;;;;5069472;28;20044;-66
2022/09/17 01:46:42;;;;;;;1999.90;999.90;;;9.00;99.90;;;;;;5061163;28;20044;-66
2022/09/17 01:49:09;;;;;;;1999.90;999.90;;;9.00;99.90;;;;;;5070389;28;20123;-66
2022/09/17 01:51:43;;;;;;;1999.90;999.90;;;9.00;99.90;;;;;;5067334;28;20097;-66
2022/09/17 01:54:24;;;;;;;1999.90;999.90;;;9.00;99.90;;;;;;5068819;28;20484;-65
2022/09/17 01:56:57;;;;;;;1999.90;999.90;;;9.00;99.90;;;;;;5050249;28;20032;-66
2022/09/17 01:59:30;;;;;;;1999.90;999.90;;;9.10;99.90;;;;;;5055474;28;20075;-66
2022/09/17 02:02:04;;;;;;;1999.90;999.90;;;9.20;99.90;;;;;;5068011;28;20044;-66
2022/09/17 02:04:35;;;;;;;1999.90;999.90;;;9.30;99.90;;;;;;5077121;28;20045;-65
2022/09/17 02:07:07;;;;;;;1999.90;999.90;;;9.40;99.90;;;;;;5085960;28;20035;-66
2022/09/17 02:09:46;;;;;;;1999.90;999.90;;;9.40;99.90;;;;;;5088736;28;20067;-66
2022/09/17 02:12:19;;;;;;;1999.90;999.90;;;9.50;99.90;;;;;;5048599;28;20071;-66
2022/09/17 02:14:52;;;;;;;1999.90;999.90;;;9.50;99.90;;;;;;5069118;28;20122;-66
2022/09/17 02:17:24;;;;;;;;;;;9.60;99.90;;;;;;5086705;28;20039;-65
2022/09/17 02:19:50;;;;;;;1999.90;999.90;;;9.70;99.90;;;;;;5081313;28;20668;-66
2022/09/17 02:22:37;;;;;;;1999.90;999.90;;;9.90;99.90;;;;;;5070415;28;20051;-66
2022/09/17 02:25:25;;;;;;;1999.90;999.90;;;10.20;99.90;;;;;;5068714;28;20051;-66
2022/09/17 02:28:03;;;;;;;1999.90;999.90;;;10.50;99.90;;;;;;5074902;28;20040;-66
2022/09/17 02:30:29;;;;;;;1999.90;999.90;;;10.60;99.90;;;;;;5080305;28;20051;-66
2022/09/17 02:32:55;;;;;;;1999.90;999.90;;;10.60;99.90;;;;;;5069787;28;20411;-65
2022/09/17 02:35:21;;;;;;;1999.90;999.90;;;10.60;99.90;;;;;;5070097;28;20044;-65
2022/09/17 02:37:47;;;;;;;1999.90;999.90;;;10.50;99.90;;;;;;5073324;28;20432;-66
2022/09/17 02:40:17;;;;;;;1999.90;999.90;;;10.50;99.90;;;;;;5070472;28;20119;-66
2022/09/17 02:43:01;;;;;;;1999.90;999.90;;;10.40;99.90;;;;;;5051446;28;20504;-66
2022/09/17 02:45:30;;;;;;;1999.90;999.90;;;10.30;99.90;;;;;;5087825;28;20101;-66
2022/09/17 02:48:32;;;;;;;1999.90;999.90;;;10.20;99.90;;;;;;5087099;28;20044;-66
2022/09/17 02:51:43;;;;;;;1999.90;999.90;;;10.10;99.90;;;;;;5072830;28;20044;-66
2022/09/17 02:54:35;;;;;;;1999.90;999.90;;;10.00;99.90;;;;;;5084750;28;20441;-66
2022/09/17 02:57:10;;;;;;;1999.90;999.90;;;10.00;99.90;;;;;;5086421;28;20395;-66
2022/09/17 03:00:06;;;;;;;1999.90;999.90;;;9.90;99.90;;;;;;5074202;28;20040;-66
2022/09/17 03:02:47;;;;;;;1999.90;999.90;;;9.90;99.90;;;;;;5088936;28;20047;-66
2022/09/17 03:05:15;;;;;;;1999.90;999.90;;;9.80;99.90;;;;;;5091587;28;20067;-66
2022/09/17 03:07:41;;;;;;;1999.90;999.90;;;9.90;99.90;;;;;;5082238;28;20487;-66
2022/09/17 03:10:07;;;;;;;1999.90;999.90;;;10.00;99.90;;;;;;5071483;28;20040;-65
2022/09/17 03:12:33;;;;;;;1999.90;999.90;;;10.00;99.90;;;;;;5083889;28;20074;-66
2022/09/17 03:14:59;;;;;;;1999.90;999.90;;;10.10;99.90;;;;;;5087864;28;20088;-66
2022/09/17 03:17:25;;;;;;;1999.90;999.90;;;10.10;99.90;;;;;;5082887;28;20072;-66
2022/09/17 03:19:50;;;;;;;1999.90;999.90;;;10.10;99.90;;;;;;5073749;28;20072;-66
2022/09/17 03:22:16;;;;;;;1999.90;999.90;;;10.00;99.90;;;;;;5070944;28;20432;-66
2022/09/17 03:24:42;;;;;;;1999.90;999.90;;;10.00;99.90;;;;;;5092136;28;20039;-66
2022/09/17 03:27:07;;;;;;;1999.90;999.90;;;10.00;99.90;;;;;;5091696;28;20068;-66
2022/09/17 03:29:33;;;;;;;1999.90;999.90;;;10.10;99.90;;;;;;5073718;28;20047;-66
2022/09/17 03:31:59;;;;;;;1999.90;999.90;;;10.10;99.90;;;;;;5065088;28;20084;-66
2022/09/17 03:34:25;;;;;;;1999.90;999.90;;;10.10;99.90;;;;;;5073939;28;20531;-66
2022/09/17 03:36:51;;;;;;;1999.90;999.90;;;10.10;99.90;;;;;;5078430;28;20123;-65
2022/09/17 03:39:16;;;;;;;1999.90;999.90;;;10.20;99.90;;;;;;5054052;28;20032;-66
2022/09/17 03:41:42;;;;;;;1999.90;999.90;;;10.30;99.90;;;;;;5083354;28;20376;-65
2022/09/17 03:44:09;;;;;;;1999.90;999.90;;;10.30;99.90;;;;;;5064774;28;20130;-66
2022/09/17 03:46:35;;;;;;;1999.90;999.90;;;10.40;99.90;;;;;;5063511;28;20143;-66
2022/09/17 03:49:00;;;;;;;1999.90;999.90;;;10.40;99.90;;;;;;5055477;28;20115;-66
2022/09/17 03:51:26;;;;;;;1999.90;999.90;;;10.50;99.90;;;;;;5073092;28;20097;-66
2022/09/17 03:53:51;;;;;;;1999.90;999.90;;;10.40;99.90;;;;;;5049731;28;20112;-66
2022/09/17 03:56:17;;;;;;;1999.90;999.90;;;10.40;99.90;;;;;;5091055;28;20488;-66
2022/09/17 03:58:43;;;;;;;1999.90;999.90;;;10.30;99.90;;;;;;5090642;28;20044;-66
2022/09/17 04:01:08;;;;;;;1999.90;999.90;;;10.20;99.90;;;;;;5080905;28;20093;-66
2022/09/17 04:03:34;;;;;;;1999.90;999.90;;;10.10;99.90;;;;;;5055741;28;20123;-66
2022/09/17 04:05:59;;;;;;;1999.90;999.90;;;10.00;99.90;;;;;;5090972;28;20510;-66
2022/09/17 04:08:25;;;;;;;1999.90;999.90;;;9.90;99.90;;;;;;5072564;28;20109;-66
2022/09/17 04:10:50;;;;;;;1999.90;999.90;;;9.80;99.90;;;;;;5071025;28;20047;-66
2022/09/17 04:13:17;;;;;;;1999.90;999.90;;;9.70;99.90;;;;;;5090648;28;20152;-66
2022/09/17 04:15:44;;;;;;;1999.90;999.90;;;9.70;99.90;;;;;;5054208;28;20051;-66
2022/09/17 04:18:09;;;;;;;1999.90;999.90;;;9.70;99.90;;;;;;5072648;28;20067;-66
2022/09/17 04:20:35;;;;;;;1999.90;999.90;;;9.70;99.90;;;;;;5066966;28;20480;-66
2022/09/17 04:23:01;;;;;;;1999.90;999.90;;;9.80;99.90;;;;;;5082535;28;20044;-66
2022/09/17 04:25:26;;;;;;;1999.90;999.90;;;9.80;99.90;;;;;;5072742;28;20433;-66
2022/09/17 04:27:52;;;;;;;1999.90;999.90;;;9.80;99.90;;;;;;5072779;28;20044;-66
2022/09/17 04:30:18;;;;;;;1999.90;999.90;;;9.80;99.90;;;;;;5052333;28;20098;-66
2022/09/17 04:32:44;;;;;;;1999.90;999.90;;;9.80;99.90;;;;;;5072117;28;20135;-66
2022/09/17 04:35:11;;;;;;;1999.90;999.90;;;9.80;99.90;;;;;;5068039;28;20384;-66
2022/09/17 04:37:37;;;;;;;1999.90;999.90;;;9.70;99.90;;;;;;5072197;28;20072;-66
2022/09/17 04:40:03;;;;;;;1999.90;999.90;;;9.70;99.90;;;;;;5072310;28;20124;-66
2022/09/17 04:42:29;;;;;;;1999.90;999.90;;;9.70;99.90;;;;;;5067758;28;20055;-66
2022/09/17 04:44:55;;;;;;;1999.90;999.90;;;9.80;99.90;;;;;;5080350;28;20036;-66
2022/09/17 04:47:21;;;;;;;1999.90;999.90;;;9.80;99.90;;;;;;5089925;28;20086;-66
2022/09/17 04:49:46;;;;;;;1999.90;999.90;;;9.80;99.90;;;;;;5076053;28;20051;-66
2022/09/17 04:52:12;;;;;;;1999.90;999.90;;;9.80;99.90;;;;;;5068414;28;20578;-66
2022/09/17 04:54:37;;;;;;;1999.90;999.90;;;9.80;99.90;;;;;;5086247;28;20388;-66
2022/09/17 04:57:03;;;;;;;1999.90;999.90;;;9.80;99.90;;;;;;5070830;28;20484;-66
2022/09/17 04:59:29;;;;;;;1999.90;999.90;;;9.70;99.90;;;;;;5089937;28;20404;-66
2022/09/17 05:01:54;;;;;;;1999.90;999.90;;;9.70;99.90;;;;;;5054678;28;20051;-66
2022/09/17 05:04:20;;;;;;;1999.90;999.90;;;9.60;99.90;;;;;;5085097;28;20045;-66
2022/09/17 05:06:46;;;;;;;1999.90;999.90;;;9.60;99.90;;;;;;5087608;28;20170;-66
2022/09/17 05:09:11;;;;;;;1999.90;999.90;;;9.60;99.90;;;;;;5067512;28;20506;-66
2022/09/17 05:11:37;;;;;;;1999.90;999.90;;;9.60;99.90;;;;;;5070556;28;20132;-66
2022/09/17 05:14:02;;;;;;;1999.90;999.90;;;9.60;99.90;;;;;;5054416;28;20068;-66
2022/09/17 05:16:28;;;;;;;1999.90;999.90;;;9.60;99.90;;;;;;5071710;28;20047;-66
2022/09/17 05:18:54;;;;;;;1999.90;999.90;;;9.70;99.90;;;;;;5079026;28;20063;-66
2022/09/17 05:21:20;;;;;;;1999.90;999.90;;;9.80;99.90;;;;;;5089583;28;20111;-66
2022/09/17 05:23:46;;;;;;;1999.90;999.90;;;10.00;99.90;;;;;;5089375;28;20123;-66
2022/09/17 05:26:12;;;;;;;1999.90;999.90;;;10.00;99.90;;;;;;5089855;28;20104;-66
2022/09/17 05:28:38;;;;;;;1999.90;999.90;;;10.10;99.90;;;;;;5076927;28;20056;-65
2022/09/17 05:31:03;;;;;;;1999.90;999.90;;;10.10;99.90;;;;;;5071287;28;20044;-66
2022/09/17 05:33:29;;;;;;;1999.90;999.90;;;10.20;99.90;;;;;;5088597;28;20048;-65
2022/09/17 05:35:55;;;;;;;1999.90;999.90;;;10.20;99.90;;;;;;5056902;28;20032;-66
2022/09/17 05:38:20;;;;;;;1999.90;999.90;;;10.30;99.90;;;;;;5086467;28;20052;-65
2022/09/17 05:40:47;;;;;;;1999.90;999.90;;;10.30;99.90;;;;;;5069052;28;20795;-65
2022/09/17 05:43:13;;;;;;;1999.90;999.90;;;10.20;99.90;;;;;;5070422;28;20039;-66
2022/09/17 05:45:39;;;;;;;1999.90;999.90;;;10.10;99.90;;;;;;5081366;28;20400;-66
2022/09/17 05:48:08;;;;;;;1999.90;999.90;;;10.10;99.90;;;;;;5084806;28;20037;-66
2022/09/17 05:50:34;;;;;;;1999.90;999.90;;;9.90;99.90;;;;;;5080061;28;20032;-66
2022/09/17 05:53:10;;;;;;;1999.90;999.90;;;9.90;99.90;;;;;;5088608;28;20369;-66
2022/09/17 05:55:36;;;;;;;1999.90;999.90;;;9.80;99.90;;;;;;5089131;28;20067;-66
2022/09/17 05:58:16;;;;;;;1999.90;999.90;;;9.70;99.90;;;;;;5086694;28;20111;-66
2022/09/17 06:00:42;;;;;;;1999.90;999.90;;;9.60;99.90;;;;;;5082831;28;20044;-66
2022/09/17 06:03:10;;;;;;;1999.90;999.90;;;9.50;99.90;;;;;;5080568;28;20059;-66
2022/09/17 06:05:35;;;;;;;1999.90;999.90;;;9.50;99.90;;;;;;5088767;28;20059;-66
2022/09/17 06:08:01;;;;;;;1999.90;999.90;;;9.40;99.90;;;;;;5070500;28;20500;-66
2022/09/17 06:10:27;;;;;;;1999.90;999.90;;;9.40;99.90;;;;;;5056835;28;20055;-66
2022/09/17 06:12:59;;;;;;;1999.90;999.90;;;9.40;99.90;;;;;;5088682;28;20856;-66
2022/09/17 06:15:26;;;;;;;1999.90;999.90;;;9.50;99.90;;;;;;5088263;28;20487;-66
2022/09/17 06:17:51;;;;;;;1999.90;999.90;;;9.60;99.90;;;;;;5081731;28;20043;-66
2022/09/17 06:20:17;;;;;;;1999.90;999.90;;;9.70;99.90;;;;;;5067679;28;20040;-66
2022/09/17 06:22:43;;;;;;;1999.90;999.90;;;9.70;99.90;;;;;;5081068;28;20048;-65
2022/09/17 06:25:09;;;;;;;1999.90;999.90;;;9.70;99.90;;;;;;5053172;28;20036;-66
2022/09/17 06:27:35;;;;;;;1999.90;999.90;;;9.70;99.90;;;;;;5086637;28;20048;-66
2022/09/17 06:30:01;;;;;;;1999.90;999.90;;;9.70;99.90;;;;;;5081412;28;20043;-66
2022/09/17 06:32:27;;;;;;;1999.90;999.90;;;9.60;99.90;;;;;;5088074;28;20052;-66
2022/09/17 06:34:54;;;;;;;1999.90;999.90;;;9.60;99.90;;;;;;5088521;28;20758;-66
2022/09/17 06:37:26;;;;;;;1999.90;999.90;;;9.60;99.90;;;;;;5068806;28;20051;-66
2022/09/17 06:39:51;;;;;;;1999.90;999.90;;;9.70;99.90;;;;;;5088712;28;20044;-66
2022/09/17 06:42:17;;;;;;;1999.90;999.90;;;9.80;99.90;;;;;;5053876;28;20048;-66
2022/09/17 06:44:42;;;;;;;1999.90;999.90;;;10.00;99.90;;;;;;5066357;28;20048;-66
2022/09/17 06:47:08;;;;;;;1999.90;999.90;;;10.20;99.90;;;;;;5081831;28;20674;-66
2022/09/17 06:49:34;;;;;;;1999.90;999.90;;;10.20;99.90;;;;;;5074096;28;20480;-65
2022/09/17 06:51:59;;;;;;;1999.90;999.90;;;10.30;99.90;;;;;;5088341;28;20150;-65
2022/09/17 06:54:25;;;;;;;1999.90;999.90;;;10.30;99.90;;;;;;5051729;28;20480;-66
2022/09/17 06:56:50;;;;;;;1999.90;999.90;;;10.30;99.90;;;;;;5069756;28;20746;-66
2022/09/17 06:59:16;;;;;;;1999.90;999.90;;;10.40;99.90;;;;;;5069816;28;20079;-66
2022/09/17 07:01:42;;;;;;;1999.90;999.90;;;10.50;99.90;;;;;;5070048;28;20051;-66
2022/09/17 07:04:08;;;;;;;1999.90;999.90;;;10.70;99.90;;;;;;5087052;28;20039;-66
2022/09/17 07:06:33;;;;;;;1999.90;999.90;;;10.90;99.90;;;;;;5088174;28;20423;-66
2022/09/17 07:08:59;;;;;;;1999.90;999.90;;;11.00;99.90;;;;;;5068787;28;20403;-66
2022/09/17 07:11:24;;;;;;;1999.90;999.90;;;11.00;99.90;;;;;;5082921;28;20412;-66
2022/09/17 07:13:50;;;;;;;1999.90;999.90;;;11.00;99.90;;;;;;5088706;28;20040;-66
2022/09/17 07:16:16;;;;;;;1999.90;999.90;;;10.90;99.90;;;;;;5088471;28;20036;-66
2022/09/17 07:18:42;;;;;;;1999.90;999.90;;;10.90;99.90;;;;;;5066231;28;20400;-66
2022/09/17 07:21:09;;;;;;;1999.90;999.90;;;10.80;99.90;;;;;;5069172;28;20089;-66
2022/09/17 07:23:36;;;;;;;1999.90;999.90;;;10.80;99.90;;;;;;5080884;28;20047;-66
2022/09/17 07:26:07;;;;;;;1999.90;999.90;;;11.00;99.90;;;;;;5069633;28;20479;-66
2022/09/17 07:28:33;;;;;;;1999.90;999.90;;;11.20;99.90;;;;;;5066636;28;20059;-66
2022/09/17 07:31:03;;;;;;;1999.90;999.90;;;11.30;99.90;;;;;;5052849;28;20048;-66
2022/09/17 07:33:28;;;;;;;1999.90;999.90;;;11.40;99.90;;;;;;5088778;28;20110;-66
2022/09/17 07:35:56;;;;;;;1999.90;999.90;;;11.70;99.90;;;;;;5069847;28;20040;-67
2022/09/17 07:38:23;;;;;;;1999.90;999.90;;;12.00;99.90;;;;;;5083154;28;20084;-67
2022/09/17 07:40:58;;;;;;;1999.90;999.90;;;12.20;99.90;;;;;;5071362;28;20047;-66
2022/09/17 07:43:26;;;;;;;1999.90;999.90;;;12.50;99.90;;;;;;5064830;28;20160;-66
2022/09/17 07:45:52;;;;;;;1999.90;999.90;;;12.60;99.90;;;;;;5068865;28;20078;-66
2022/09/17 07:48:19;;;;;;;1999.90;999.90;;;12.80;99.90;;;;;;5040347;28;20043;-66
2022/09/17 07:50:44;;;;;;;1999.90;999.90;;;12.90;99.90;;;;;;5090816;28;20058;-66
2022/09/17 07:53:10;;;;;;;1999.90;999.90;;;13.00;99.90;;;;;;5078402;28;20048;-66
2022/09/17 07:55:36;;;;;;;1999.90;999.90;;;13.20;99.90;;;;;;5056450;28;20795;-67
2022/09/17 07:58:02;;;;;;;1999.90;999.90;;;13.30;99.90;;;;;;5056130;28;20104;-67
2022/09/17 08:00:27;;;;;;;1999.90;999.90;;;13.40;99.90;;;;;;5090851;28;20104;-66
2022/09/17 08:02:56;;;;;;;1999.90;999.90;;;13.30;99.90;;;;;;5086856;28;20052;-66
2022/09/17 08:05:23;;;;;;;1999.90;999.90;;;13.20;99.90;;;;;;5091406;28;20048;-66
2022/09/17 08:07:54;;;;;;;1999.90;999.90;;;12.90;99.90;;;;;;5091451;28;20051;-65
2022/09/17 08:10:21;;;;;;;1999.90;999.90;;;12.70;99.90;;;;;;5066679;28;20114;-66
2022/09/17 08:12:48;;;;;;;1999.90;999.90;;;12.40;99.90;;;;;;5072799;28;20543;-65
2022/09/17 08:15:14;;;;;;;1999.90;999.90;;;12.00;99.90;;;;;;5090840;28;20036;-66
2022/09/17 08:17:44;;;;;;;1999.90;999.90;;;11.70;99.90;;;;;;5088010;28;20043;-66
2022/09/17 08:20:10;;;;;;;1999.90;999.90;;;11.50;99.90;;;;;;5086499;28;20044;-66
2022/09/17 08:22:36;;;;;;;1999.90;999.90;;;11.30;99.90;;;;;;5090934;28;20072;-66
2022/09/17 08:25:03;;;;;;;1999.90;999.90;;;11.10;99.90;;;;;;5088010;28;20070;-66
2022/09/17 08:27:31;;;;;;;1999.90;999.90;;;11.10;99.90;;;;;;5090940;28;20047;-66
2022/09/17 08:29:57;;;;;;;1999.90;999.90;;;11.50;99.90;;;;;;5090640;28;20525;-66
2022/09/17 08:32:24;;;;;;;1999.90;999.90;;;11.60;99.90;;;;;;5054738;28;20091;-66
2022/09/17 08:34:49;;;;;;;1999.90;999.90;;;11.70;99.90;;;;;;5071464;28;20449;-66
2022/09/17 08:37:15;;;;;;;1999.90;999.90;;;11.70;99.90;;;;;;5090434;28;20094;-66
2022/09/17 08:39:41;;;;;;;1999.90;999.90;;;11.90;99.90;;;;;;5079836;28;20040;-65
2022/09/17 08:42:26;;;;;;;1999.90;999.90;;;12.10;99.90;;;;;;5071888;28;20040;-66
2022/09/17 08:44:55;;;;;;;1999.90;999.90;;;12.60;99.90;;;;;;5083101;28;20032;-67
2022/09/17 08:47:42;;;;;;;1999.90;999.90;;;13.40;99.90;;;;;;5072439;28;20561;-66
2022/09/17 08:50:31;;;;;;;1999.90;999.90;;;13.60;99.90;;;;;;5072414;28;20036;-66
2022/09/17 08:53:30;;;;;;;1999.90;999.90;;;13.50;99.90;;;;;;5068425;28;20094;-66
2022/09/17 08:55:59;;;;;;;1999.90;999.90;;;13.30;99.90;;;;;;5060239;28;20060;-66
2022/09/17 08:58:39;;;;;;;1999.90;999.90;;;13.00;99.90;;;;;;5054234;28;20170;-66
2022/09/17 09:01:11;;;;;;;1999.90;999.90;;;12.90;99.90;;;;;;5085871;28;20036;-66
2022/09/17 09:03:59;;;;;;;1999.90;999.90;;;12.80;99.90;;;;;;5054869;28;20051;-66
2022/09/17 09:06:30;;;;;;;1999.90;999.90;;;12.70;99.90;;;;;;5062230;28;20059;-66
2022/09/17 09:08:58;;;;;;;1999.90;999.90;;;13.40;99.90;;;;;;5071942;28;20085;-66
2022/09/17 09:11:26;;;;;;;1999.90;999.90;;;14.50;99.90;;;;;;5089833;28;20395;-67
2022/09/17 09:13:57;;;;;;;1999.90;999.90;;;15.50;99.90;;;;;;5070736;28;20039;-66
2022/09/17 09:16:25;;;;;;;1999.90;999.90;;;16.50;99.90;;;;;;5089762;28;20442;-67
2022/09/17 09:18:58;;;;;;;1999.90;999.90;;;16.90;99.90;;;;;;5060965;28;20051;-67
2022/09/17 09:21:50;;;;;;;1999.90;999.90;;;16.70;99.90;;;;;;5089827;28;20047;-67
2022/09/17 09:24:21;;;;;;;1999.90;999.90;;;15.90;99.90;;;;;;5085033;28;20047;-66
2022/09/17 09:26:57;;;;;;;1999.90;999.90;;;15.60;99.90;;;;;;5089462;28;20055;-67
2022/09/17 09:29:46;;;;;;;1999.90;999.90;;;16.10;99.90;;;;;;5089625;28;20107;-66
2022/09/17 09:32:34;;;;;;;1999.90;999.90;;;16.60;99.90;;;;;;5066838;28;20138;-66
2022/09/17 09:35:10;;;;;;;1999.90;999.90;;;16.30;99.90;;;;;;5089073;28;20066;-66
2022/09/17 09:37:41;;;;;;;1999.90;999.90;;;15.70;99.90;;;;;;5087676;28;20048;-66
2022/09/17 09:40:17;;;;;;;1999.90;999.90;;;15.10;99.90;;;;;;5081529;28;20044;-66
2022/09/17 09:42:45;;;;;;;1999.90;999.90;;;14.50;99.90;;;;;;5088787;28;20050;-66
2022/09/17 09:45:17;;;;;;;1999.90;999.90;;;14.00;99.90;;;;;;5068082;28;20060;-66
2022/09/17 09:47:56;;;;;;;1999.90;999.90;;;14.00;99.90;;;;;;5068549;28;20044;-66
2022/09/17 09:50:52;;;;;;;1999.90;999.90;;;14.10;99.90;;;;;;5060241;28;20434;-66
2022/09/17 09:53:27;;;;;;;1999.90;999.90;;;14.80;99.90;;;;;;5086889;28;20079;-66
2022/09/17 09:56:05;;;;;;;1999.90;999.90;;;15.30;99.90;;;;;;5067994;28;20063;-66
2022/09/17 09:58:37;;;;;;;1999.90;999.90;;;15.80;99.90;;;;;;5069784;28;20047;-66
2022/09/17 10:01:21;;;;;;;1999.90;999.90;;;16.20;99.90;;;;;;5052908;28;20040;-66
2022/09/17 10:03:48;;;;;;;1999.90;999.90;;;16.00;99.90;;;;;;5066165;28;20036;-66
2022/09/17 10:06:14;;;;;;;1999.90;999.90;;;15.30;99.90;;;;;;5070519;28;20381;-66
2022/09/17 10:08:54;;;;;;;1999.90;999.90;;;14.70;99.90;;;;;;5070532;28;20051;-66
2022/09/17 10:11:23;;;;;;;1999.90;999.90;;;14.30;99.90;;;;;;5086048;28;20088;-66
2022/09/17 10:13:49;;;;;;;1999.90;999.90;;;14.10;99.90;;;;;;5056331;28;20489;-66
2022/09/17 10:16:21;;;;;;;1999.90;999.90;;;14.20;99.90;;;;;;5088694;28;20392;-67
2022/09/17 10:18:48;;;;;;;1999.90;999.90;;;14.50;99.90;;;;;;5071397;28;20044;-66
2022/09/17 10:21:29;;;;;;;1999.90;999.90;;;14.80;99.90;;;;;;5078234;28;20044;-66
2022/09/17 10:23:55;;;;;;;1999.90;999.90;;;15.10;99.90;;;;;;5087361;28;20043;-65
2022/09/17 10:26:27;;;;;;;1999.90;999.90;;;15.50;99.90;;;;;;5069860;28;20040;-65
2022/09/17 10:28:55;;;;;;;1999.90;999.90;;;15.70;99.90;;;;;;5074619;28;20036;-66
2022/09/17 10:31:22;;;;;;;1999.90;999.90;;;15.70;99.90;;;;;;5069552;28;20059;-66
2022/09/17 10:33:56;;;;;;;1999.90;999.90;;;15.80;99.90;;;;;;5070111;28;20068;-66
2022/09/17 10:36:43;;;;;;;1999.90;999.90;;;15.50;99.90;;;;;;5088066;28;20050;-66
2022/09/17 10:39:33;;;;;;;1999.90;999.90;;;15.40;99.90;;;;;;5068612;28;20119;-65
2022/09/17 10:42:03;;;;;;;1999.90;999.90;;;15.40;99.90;;;;;;5088724;28;20051;-66
2022/09/17 10:44:34;;;;;;;1999.90;999.90;;;15.20;99.90;;;;;;5070198;28;20222;-66
2022/09/17 10:47:20;;;;;;;1999.90;999.90;;;15.10;99.90;;;;;;5050939;28;20051;-66
2022/09/17 10:49:48;;;;;;;1999.90;999.90;;;14.10;99.90;;;;;;5054013;28;20044;-66
2022/09/17 10:52:36;;;;;;;1999.90;999.90;;;13.20;99.90;;;;;;5051595;28;20044;-65
2022/09/17 10:55:17;;;;;;;1999.90;999.90;;;12.70;99.90;;;;;;5069915;28;20047;-66
2022/09/17 10:57:53;;;;;;;1999.90;999.90;;;12.60;99.90;;;;;;5066417;28;20063;-65
2022/09/17 11:00:22;;;;;;;1999.90;999.90;;;12.70;99.90;;;;;;5056379;28;20044;-66
2022/09/17 11:03:03;;;;;;;1999.90;999.90;;;12.90;99.90;;;;;;5088381;28;20040;-65
2022/09/17 11:05:56;;;;;;;1999.90;999.90;;;13.20;99.90;;;;;;5050002;28;20061;-66
2022/09/17 11:08:37;;;;;;;1999.90;999.90;;;13.20;99.90;;;;;;5085582;28;20032;-65
2022/09/17 11:11:37;;;;;;;1999.90;999.90;;;13.50;99.90;;;;;;5092219;28;20044;-66
2022/09/17 11:14:34;;;;;;;1999.90;999.90;;;13.40;99.90;;;;;;5079679;28;20040;-66
2022/09/17 11:17:15;;;;;;;1999.90;999.90;;;13.30;99.90;;;;;;5080372;28;20407;-66
2022/09/17 11:19:56;;;;;;;1999.90;999.90;;;13.40;99.90;;;;;;5091973;28;20121;-66
2022/09/17 11:22:51;;;;;;;1999.90;999.90;;;13.50;99.90;;;;;;5084956;28;20044;-66
2022/09/17 11:25:22;;;;;;;1999.90;999.90;;;13.70;99.90;;;;;;5091448;28;20044;-66
2022/09/17 11:27:56;;;;;;;1999.90;999.90;;;14.00;99.90;;;;;;5086268;28;20043;-66
2022/09/17 11:30:23;;;;;;;1999.90;999.90;;;14.20;99.90;;;;;;5091636;28;20063;-66
2022/09/17 11:32:51;;;;;;;1999.90;999.90;;;14.10;99.90;;;;;;5085037;28;20052;-66
2022/09/17 11:35:29;;;;;;;1999.90;999.90;;;14.00;99.90;;;;;;5091878;28;20056;-66
2022/09/17 11:38:14;;;;;;;1999.90;999.90;;;13.80;99.90;;;;;;5073967;28;20776;-65
2022/09/17 11:40:48;;;;;;;1999.90;999.90;;;13.60;99.90;;;;;;5090027;28;20044;-66
2022/09/17 11:43:33;;;;;;;1999.90;999.90;;;13.50;99.90;;;;;;5073402;28;20043;-65
2022/09/17 11:46:18;;;;;;;1999.90;999.90;;;13.50;99.90;;;;;;5056609;28;20093;-65
2022/09/17 11:48:50;;;;;;;1999.90;999.90;;;13.50;99.90;;;;;;5063980;28;20048;-65
2022/09/17 11:51:35;;;;;;;1999.90;999.90;;;13.60;99.90;;;;;;5088127;28;20048;-66
2022/09/17 11:54:07;;;;;;;1999.90;999.90;;;13.80;99.90;;;;;;5091543;28;20050;-65
2022/09/17 11:56:40;;;;;;;1999.90;999.90;;;13.90;99.90;;;;;;5068618;28;20047;-65
2022/09/17 11:59:37;;;;;;;1999.90;999.90;;;14.10;99.90;;;;;;5064138;28;20050;-65
2022/09/17 12:02:08;;;;;;;1999.90;999.90;;;14.40;99.90;;;;;;5089931;28;20040;-66
2022/09/17 12:04:58;;;;;;;1999.90;999.90;;;14.80;99.90;;;;;;5051498;28;20155;-65
2022/09/17 12:07:42;;;;;;;1999.90;999.90;;;15.10;99.90;;;;;;5080075;28;20109;-65
2022/09/17 12:10:28;;;;;;;1999.90;999.90;;;15.20;99.90;;;;;;5090030;28;20818;-65
2022/09/17 12:13:10;;;;;;;1999.90;999.90;;;15.50;99.90;;;;;;5078363;28;20041;-65
2022/09/17 12:15:41;;;;;;;1999.90;999.90;;;15.70;99.90;;;;;;5077464;28;20043;-65
2022/09/17 12:18:41;;;;;;;1999.90;999.90;;;15.90;99.90;;;;;;5067525;28;20586;-65
2022/09/17 12:21:10;;;;;;;1999.90;999.90;;;16.20;99.90;;;;;;5079578;28;20501;-65
2022/09/17 12:23:42;;;;;;;1999.90;999.90;;;16.50;99.90;;;;;;5076350;28;20575;-66